createdAt,value
2023-02-08T00:00:28.692Z,6.10
2023-02-08T00:02:56.695Z,6.10
2023-02-08T00:05:24.713Z,6.10
2023-02-08T00:07:54.110Z,6.10
2023-02-08T00:10:22.125Z,6.10
2023-02-08T00:12:52.232Z,6.10
2023-02-08T00:15:20.372Z,6.10
2023-02-08T00:17:48.389Z,6.00
2023-02-08T00:20:16.483Z,6.00
2023-02-08T00:22:44.482Z,6.00
2023-02-08T00:25:13.894Z,6.00
2023-02-08T00:27:41.960Z,6.00
2023-02-08T00:30:11.000Z,6.00
2023-02-08T00:32:38.974Z,6.10
2023-02-08T00:35:07.553Z,6.10
2023-02-08T00:37:35.552Z,6.10
2023-02-08T00:40:05.805Z,6.10
2023-02-08T00:42:35.159Z,6.10
2023-02-08T00:45:03.147Z,6.10
2023-02-08T00:47:31.121Z,6.00
2023-02-08T00:49:59.127Z,6.00
2023-02-08T00:52:27.309Z,5.90
2023-02-08T00:54:55.313Z,5.90
2023-02-08T00:57:23.339Z,5.80
2023-02-08T00:59:52.734Z,5.90
2023-02-08T01:02:20.792Z,6.00
2023-02-08T01:04:48.840Z,6.00
2023-02-08T01:07:16.869Z,6.00
2023-02-08T01:09:44.870Z,6.00
2023-02-08T01:12:12.896Z,6.00
2023-02-08T01:14:41.112Z,6.00
2023-02-08T01:17:10.628Z,6.00
2023-02-08T01:19:39.125Z,6.10
2023-02-08T01:22:07.140Z,6.00
2023-02-08T01:24:35.281Z,5.90
2023-02-08T01:27:03.327Z,5.90
2023-02-08T01:29:31.325Z,5.90
2023-02-08T01:31:59.319Z,5.90
2023-02-08T01:34:28.786Z,6.00
2023-02-08T01:36:56.851Z,6.00
2023-02-08T01:39:24.868Z,6.00
2023-02-08T01:41:52.911Z,6.00
2023-02-08T01:44:58.461Z,6.00
2023-02-08T01:47:26.522Z,6.10
2023-02-08T01:49:55.933Z,6.10
2023-02-08T01:52:25.330Z,6.00
2023-02-08T01:54:55.073Z,5.90
2023-02-08T01:57:23.284Z,5.80
2023-02-08T01:59:52.411Z,5.80
2023-02-08T02:02:22.017Z,5.90
2023-02-08T02:04:50.332Z,5.90
2023-02-08T02:07:19.935Z,6.00
2023-02-08T02:09:51.190Z,6.00
2023-02-08T02:12:19.233Z,6.00
2023-02-08T02:14:47.245Z,6.00
2023-02-08T02:17:15.316Z,6.00
2023-02-08T02:19:48.097Z,6.00
2023-02-08T02:22:36.031Z,6.00
2023-02-08T02:25:12.549Z,5.90
2023-02-08T02:27:46.366Z,5.80
2023-02-08T02:30:37.356Z,5.80
2023-02-08T02:33:15.999Z,5.80
2023-02-08T02:35:46.728Z,5.90
2023-02-08T02:38:17.164Z,5.90
2023-02-08T02:40:51.047Z,5.90
2023-02-08T02:43:39.776Z,6.00
2023-02-08T02:46:10.153Z,6.00
2023-02-08T02:48:43.111Z,6.00
2023-02-08T02:51:11.716Z,6.00
2023-02-08T02:53:43.627Z,5.90
2023-02-08T02:56:13.497Z,5.80
2023-02-08T02:58:41.527Z,5.80
2023-02-08T03:01:09.589Z,5.70
2023-02-08T03:03:37.641Z,5.70
2023-02-08T03:06:08.421Z,5.80
2023-02-08T03:08:55.400Z,5.80
2023-02-08T03:11:24.396Z,5.80
2023-02-08T03:14:01.325Z,5.90
2023-02-08T03:16:33.367Z,5.90
2023-02-08T03:19:07.397Z,5.90
2023-02-08T03:21:40.420Z,5.90
2023-02-08T03:24:14.657Z,5.90
2023-02-08T03:26:46.100Z,5.90
2023-02-08T03:29:18.928Z,5.80
2023-02-08T03:31:48.026Z,5.70
2023-02-08T03:34:17.775Z,5.70
2023-02-08T03:36:48.849Z,5.80
2023-02-08T03:39:18.130Z,5.80
2023-02-08T03:41:47.422Z,5.80
2023-02-08T03:44:17.365Z,5.90
2023-02-08T03:46:47.734Z,5.90
2023-02-08T03:49:16.847Z,5.90
2023-02-08T03:51:44.832Z,5.90
2023-02-08T03:54:16.702Z,5.90
2023-02-08T03:56:46.569Z,5.90
2023-02-08T03:59:16.127Z,5.80
2023-02-08T04:01:45.626Z,5.70
2023-02-08T04:04:13.989Z,5.70
2023-02-08T04:06:42.039Z,5.70
2023-02-08T04:09:10.050Z,5.80
2023-02-08T04:11:39.486Z,5.80
2023-02-08T04:14:07.500Z,5.80
2023-02-08T04:16:35.528Z,5.80
2023-02-08T04:19:03.774Z,5.80
2023-02-08T04:21:31.797Z,5.90
2023-02-08T04:24:01.049Z,5.90
2023-02-08T04:26:29.128Z,5.80
2023-02-08T04:28:58.626Z,5.80
2023-02-08T04:31:26.770Z,5.70
2023-02-08T04:33:54.892Z,5.70
2023-02-08T04:36:23.037Z,5.70
2023-02-08T04:38:51.055Z,5.70
2023-02-08T04:41:19.105Z,5.70
2023-02-08T04:43:47.118Z,5.80
2023-02-08T04:46:16.557Z,5.80
2023-02-08T04:48:44.584Z,5.80
2023-02-08T04:51:12.626Z,5.80
2023-02-08T04:53:40.625Z,5.80
2023-02-08T04:56:08.670Z,5.80
2023-02-08T04:58:36.916Z,5.80
2023-02-08T05:01:07.248Z,5.70
2023-02-08T05:03:36.795Z,5.60
2023-02-08T05:06:04.874Z,5.60
2023-02-08T05:08:32.960Z,5.60
2023-02-08T05:11:01.036Z,5.60
2023-02-08T05:13:29.055Z,5.60
2023-02-08T05:15:57.137Z,5.70
2023-02-08T05:18:25.180Z,5.70
2023-02-08T05:20:57.847Z,5.70
2023-02-08T05:23:25.842Z,5.70
2023-02-08T05:25:53.913Z,5.80
2023-02-08T05:28:23.134Z,5.80
2023-02-08T05:30:51.259Z,5.80
2023-02-08T05:33:19.615Z,5.70
2023-02-08T05:35:47.652Z,5.60
2023-02-08T05:38:17.012Z,5.60
2023-02-08T05:40:45.008Z,5.60
2023-02-08T05:43:13.015Z,5.60
2023-02-08T05:45:41.295Z,5.60
2023-02-08T05:48:09.742Z,5.60
2023-02-08T05:50:38.008Z,5.70
2023-02-08T05:53:06.093Z,5.70
2023-02-08T05:55:35.484Z,5.70
2023-02-08T05:58:03.504Z,5.70
2023-02-08T06:00:31.535Z,5.70
2023-02-08T06:02:59.609Z,5.70
2023-02-08T06:05:27.694Z,5.60
2023-02-08T06:07:55.720Z,5.60
2023-02-08T06:10:23.791Z,5.50
2023-02-08T06:12:53.175Z,5.60
2023-02-08T06:15:21.189Z,5.60
2023-02-08T06:17:49.233Z,5.70
2023-02-08T06:20:17.445Z,5.70
2023-02-08T06:22:45.478Z,5.70
2023-02-08T06:25:13.484Z,5.70
2023-02-08T06:27:41.565Z,5.70
2023-02-08T06:30:12.534Z,5.70
2023-02-08T06:32:40.658Z,5.70
2023-02-08T06:35:09.207Z,5.60
2023-02-08T06:37:37.469Z,5.60
2023-02-08T06:40:06.040Z,5.50
2023-02-08T06:42:34.048Z,5.50
2023-02-08T06:45:02.108Z,5.60
2023-02-08T06:47:31.510Z,5.60
2023-02-08T06:49:59.508Z,5.60
2023-02-08T06:52:27.696Z,5.60
2023-02-08T06:54:56.009Z,5.60
2023-02-08T06:57:24.144Z,5.70
2023-02-08T06:59:52.311Z,5.70
2023-02-08T07:02:21.499Z,5.70
2023-02-08T07:04:51.208Z,5.60
2023-02-08T07:07:19.342Z,5.50
2023-02-08T07:09:47.504Z,5.50
2023-02-08T07:12:15.545Z,5.50
2023-02-08T07:14:44.324Z,5.40
2023-02-08T07:17:12.661Z,5.40
2023-02-08T07:19:40.792Z,5.50
2023-02-08T07:22:13.187Z,5.50
2023-02-08T07:24:41.833Z,5.50
2023-02-08T07:27:10.991Z,5.60
2023-02-08T07:29:39.151Z,5.60
2023-02-08T07:32:07.653Z,5.60
2023-02-08T07:34:37.268Z,5.60
2023-02-08T07:37:05.515Z,5.60
2023-02-08T07:39:35.007Z,5.60
2023-02-08T07:42:03.093Z,5.50
2023-02-08T07:44:31.145Z,5.50
2023-02-08T07:46:59.172Z,5.40
2023-02-08T07:49:27.218Z,5.50
2023-02-08T07:51:55.259Z,5.50
2023-02-08T07:54:23.332Z,5.60
2023-02-08T07:56:52.745Z,5.60
2023-02-08T07:59:20.966Z,5.60
2023-02-08T08:01:49.068Z,5.60
2023-02-08T08:04:17.150Z,5.60
2023-02-08T08:06:46.528Z,5.70
2023-02-08T08:09:15.441Z,5.60
2023-02-08T08:11:43.486Z,5.60
2023-02-08T08:14:13.002Z,5.60
2023-02-08T08:16:42.486Z,5.60
2023-02-08T08:19:10.548Z,5.60
2023-02-08T08:21:38.757Z,5.70
2023-02-08T08:24:07.123Z,5.70
2023-02-08T08:26:35.332Z,5.70
2023-02-08T08:29:04.035Z,5.80
2023-02-08T08:31:33.522Z,5.80
2023-02-08T08:34:01.610Z,5.80
2023-02-08T08:36:29.667Z,5.80
2023-02-08T08:38:57.693Z,5.90
2023-02-08T08:41:27.287Z,5.90
2023-02-08T08:43:55.359Z,5.90
2023-02-08T08:46:23.423Z,5.90
2023-02-08T08:48:53.117Z,5.90
2023-02-08T08:51:21.528Z,5.90
2023-02-08T08:53:49.559Z,5.90
2023-02-08T08:56:17.598Z,5.90
2023-02-08T08:58:45.609Z,5.90
2023-02-08T09:01:14.497Z,6.00
2023-02-08T09:03:42.585Z,6.00
2023-02-08T09:06:11.998Z,6.00
2023-02-08T09:08:42.884Z,6.00
2023-02-08T09:11:12.209Z,6.00
2023-02-08T09:13:40.375Z,6.00
2023-02-08T09:16:09.512Z,6.00
2023-02-08T09:18:38.225Z,6.00
2023-02-08T09:21:07.356Z,6.00
2023-02-08T09:23:36.746Z,6.00
2023-02-08T09:26:04.868Z,6.00
2023-02-08T09:28:32.966Z,6.10
2023-02-08T09:31:01.818Z,6.10
2023-02-08T09:33:29.937Z,6.10
2023-02-08T09:35:57.957Z,6.20
2023-02-08T09:38:25.973Z,6.20
2023-02-08T09:41:00.395Z,6.20
2023-02-08T09:43:32.916Z,6.30
2023-02-08T09:46:02.385Z,6.30
2023-02-08T09:48:32.644Z,6.20
2023-02-08T09:51:01.831Z,6.20
2023-02-08T09:53:32.586Z,6.30
2023-02-08T09:56:02.590Z,6.30
2023-02-08T09:58:35.457Z,6.30
2023-02-08T10:01:05.918Z,6.30
2023-02-08T10:03:36.222Z,6.40
2023-02-08T10:06:06.370Z,6.40
2023-02-08T10:08:35.585Z,6.40
2023-02-08T10:11:10.642Z,6.40
2023-02-08T10:13:46.085Z,6.40
2023-02-08T10:16:19.667Z,6.40
2023-02-08T10:18:48.952Z,6.40
2023-02-08T10:21:25.082Z,6.40
2023-02-08T10:24:02.127Z,6.40
2023-02-08T10:26:33.461Z,6.40
2023-02-08T10:29:25.774Z,6.40
2023-02-08T10:32:08.621Z,6.40
2023-02-08T10:34:42.206Z,6.40
2023-02-08T10:37:13.494Z,6.40
2023-02-08T10:39:41.618Z,6.40
2023-02-08T10:42:14.999Z,6.50
2023-02-08T10:44:52.024Z,6.50
2023-02-08T10:47:21.953Z,6.40
2023-02-08T10:49:52.100Z,6.40
2023-02-08T10:52:20.140Z,6.40
2023-02-08T10:54:48.180Z,6.30
2023-02-08T10:57:18.643Z,6.40
2023-02-08T10:59:49.525Z,6.40
2023-02-08T11:02:22.851Z,6.40
2023-02-08T11:04:59.053Z,6.40
2023-02-08T11:07:27.186Z,6.40
2023-02-08T11:09:55.206Z,6.40
2023-02-08T11:12:24.729Z,6.40
2023-02-08T11:14:53.829Z,6.40
2023-02-08T11:17:26.364Z,6.40
2023-02-08T11:19:54.796Z,6.40
2023-02-08T11:22:24.308Z,6.30
2023-02-08T11:24:56.912Z,6.30
2023-02-08T11:27:33.164Z,6.30
2023-02-08T11:30:23.279Z,6.30
2023-02-08T11:33:19.608Z,6.30
2023-02-08T11:36:03.734Z,6.30
2023-02-08T11:38:32.748Z,6.30
2023-02-08T11:41:01.550Z,6.40
2023-02-08T11:43:31.986Z,6.40
2023-02-08T11:46:00.327Z,6.40
2023-02-08T11:48:43.135Z,6.40
2023-02-08T11:51:11.148Z,6.40
2023-02-08T11:53:40.564Z,6.40
2023-02-08T11:56:19.020Z,6.30
2023-02-08T11:59:18.928Z,6.40
2023-02-08T12:01:47.390Z,6.30
2023-02-08T12:04:16.973Z,6.30
2023-02-08T12:07:06.650Z,6.40
2023-02-08T12:10:38.076Z,6.40
2023-02-08T12:13:14.332Z,6.40
2023-02-08T12:15:58.288Z,6.40
2023-02-08T12:18:35.506Z,6.40
2023-02-08T12:21:05.128Z,6.40
2023-02-08T12:23:49.130Z,6.40
2023-02-08T12:26:24.544Z,6.40
2023-02-08T12:29:01.338Z,6.40
2023-02-08T12:31:37.065Z,6.30
2023-02-08T12:34:10.248Z,6.40
2023-02-08T12:36:48.992Z,6.40
2023-02-08T12:39:50.067Z,6.40
2023-02-08T12:42:33.679Z,6.40
2023-02-08T12:45:10.903Z,6.40
2023-02-08T12:48:03.034Z,6.40
2023-02-08T12:50:34.835Z,6.40
2023-02-08T12:53:04.175Z,6.40
2023-02-08T12:55:33.040Z,6.40
2023-02-08T12:58:14.981Z,6.40
2023-02-08T13:00:43.315Z,6.40
2023-02-08T13:03:16.031Z,6.40
2023-02-08T13:05:53.467Z,6.40
2023-02-08T13:08:30.863Z,6.40
2023-02-08T13:11:14.097Z,6.40
2023-02-08T13:13:56.468Z,6.40
2023-02-08T13:16:25.956Z,6.40
2023-02-08T13:18:56.336Z,6.40
2023-02-08T13:21:25.985Z,6.50
2023-02-08T13:23:53.983Z,6.40
2023-02-08T13:26:24.507Z,6.40
2023-02-08T13:28:53.506Z,6.40
2023-02-08T13:31:23.018Z,6.30
2023-02-08T13:34:01.235Z,6.30
2023-02-08T13:36:32.479Z,6.30
2023-02-08T13:39:01.225Z,6.30
2023-02-08T13:41:29.806Z,6.30
2023-02-08T13:43:59.219Z,6.40
2023-02-08T13:46:28.019Z,6.40
2023-02-08T13:48:57.747Z,6.40
2023-02-08T13:51:54.016Z,6.40
2023-02-08T13:54:22.037Z,6.40
2023-02-08T13:56:50.313Z,6.50
2023-02-08T13:59:33.750Z,6.40
2023-02-08T14:02:29.867Z,6.40
2023-02-08T14:05:39.138Z,6.30
2023-02-08T14:08:08.518Z,6.30
2023-02-08T14:10:40.653Z,6.40
2023-02-08T14:13:17.032Z,6.40
2023-02-08T14:15:45.450Z,6.40
2023-02-08T14:18:23.108Z,6.40
2023-02-08T14:21:00.591Z,6.40
2023-02-08T14:23:31.014Z,6.40
2023-02-08T14:26:01.490Z,6.50
2023-02-08T14:28:32.108Z,6.40
2023-02-08T14:31:01.459Z,6.40
2023-02-08T14:33:30.484Z,6.40
2023-02-08T14:35:59.392Z,6.30
2023-02-08T14:38:53.031Z,6.30
2023-02-08T14:41:43.451Z,6.30
2023-02-08T14:44:54.264Z,6.40
2023-02-08T14:48:02.843Z,6.40
2023-02-08T14:50:36.349Z,6.40
2023-02-08T14:53:16.954Z,6.40
2023-02-08T14:55:49.008Z,6.40
2023-02-08T14:58:23.349Z,6.40
2023-02-08T15:00:52.231Z,6.40
2023-02-08T15:03:20.314Z,6.30
2023-02-08T15:06:01.803Z,6.30
2023-02-08T15:08:29.838Z,6.30
2023-02-08T15:10:59.614Z,6.30
2023-02-08T15:13:27.707Z,6.30
2023-02-08T15:15:56.092Z,6.30
2023-02-08T15:18:25.011Z,6.40
2023-02-08T15:21:02.408Z,6.40
2023-02-08T15:23:30.966Z,6.40
2023-02-08T15:26:01.449Z,6.40
2023-02-08T15:28:30.118Z,6.40
2023-02-08T15:30:59.456Z,6.30
2023-02-08T15:33:27.540Z,6.30
2023-02-08T15:36:00.936Z,6.30
2023-02-08T15:38:29.061Z,6.30
2023-02-08T15:41:03.187Z,6.20
2023-02-08T15:43:31.372Z,6.20
2023-02-08T15:45:59.776Z,6.30
2023-02-08T15:48:28.008Z,6.30
2023-02-08T15:50:56.162Z,6.30
2023-02-08T15:53:24.256Z,6.30
2023-02-08T15:55:53.530Z,6.30
2023-02-08T15:58:29.983Z,6.30
2023-02-08T16:00:58.684Z,6.30
2023-02-08T16:03:27.121Z,6.40
2023-02-08T16:05:56.446Z,6.30
2023-02-08T16:08:28.001Z,6.30
2023-02-08T16:10:57.130Z,6.20
2023-02-08T16:13:27.543Z,6.20
2023-02-08T16:16:07.215Z,6.30
2023-02-08T16:18:40.692Z,6.30
2023-02-08T16:21:21.047Z,6.30
2023-02-08T16:23:52.415Z,6.30
2023-02-08T16:26:22.228Z,6.30
2023-02-08T16:28:59.006Z,6.30
2023-02-08T16:31:29.520Z,6.30
2023-02-08T16:33:58.925Z,6.30
2023-02-08T16:36:28.677Z,6.30
2023-02-08T16:39:46.854Z,6.20
2023-02-08T16:42:28.515Z,6.20
2023-02-08T16:45:16.429Z,6.20
2023-02-08T16:47:46.034Z,6.20
2023-02-08T16:50:15.012Z,6.20
2023-02-08T16:52:43.132Z,6.20
2023-02-08T16:55:16.625Z,6.20
2023-02-08T16:57:45.848Z,6.20
2023-02-08T17:00:19.008Z,6.30
2023-02-08T17:02:47.145Z,6.30
2023-02-08T17:05:15.520Z,6.20
2023-02-08T17:07:43.611Z,6.20
2023-02-08T17:10:17.822Z,6.20
2023-02-08T17:12:45.859Z,6.10
2023-02-08T17:15:13.991Z,6.10
2023-02-08T17:17:43.489Z,6.20
2023-02-08T17:20:18.335Z,6.20
2023-02-08T17:22:46.382Z,6.20
2023-02-08T17:25:19.008Z,6.20
2023-02-08T17:27:48.830Z,6.20
2023-02-08T17:30:19.785Z,6.20
2023-02-08T17:32:49.550Z,6.20
2023-02-08T17:35:18.407Z,6.20
2023-02-08T17:37:46.604Z,6.20
2023-02-08T17:40:15.130Z,6.10
2023-02-08T17:42:43.172Z,6.10
2023-02-08T17:45:11.631Z,6.00
2023-02-08T17:47:41.697Z,6.00
2023-02-08T17:50:11.503Z,6.00
2023-02-08T17:52:39.779Z,6.10
2023-02-08T17:55:09.142Z,6.10
2023-02-08T17:57:39.386Z,6.10
2023-02-08T18:00:09.224Z,6.20
2023-02-08T18:02:37.328Z,6.10
2023-02-08T18:05:05.815Z,6.20
2023-02-08T18:07:35.250Z,6.20
2023-02-08T18:10:04.930Z,6.20
2023-02-08T18:12:32.974Z,6.10
2023-02-08T18:15:01.014Z,6.10
2023-02-08T18:17:29.060Z,6.00
2023-02-08T18:19:57.283Z,6.00
2023-02-08T18:22:25.851Z,6.00
2023-02-08T18:24:55.352Z,6.10
2023-02-08T18:27:25.208Z,6.10
2023-02-08T18:29:53.501Z,6.10
2023-02-08T18:32:22.176Z,6.10
2023-02-08T18:34:50.667Z,6.10
2023-02-08T18:37:18.814Z,6.10
2023-02-08T18:39:47.570Z,6.20
2023-02-08T18:42:17.418Z,6.10
2023-02-08T18:44:45.632Z,6.00
2023-02-08T18:47:13.801Z,6.00
2023-02-08T18:49:41.903Z,5.90
2023-02-08T18:52:10.261Z,6.00
2023-02-08T18:54:38.768Z,6.00
2023-02-08T18:57:09.685Z,6.10
2023-02-08T18:59:39.416Z,6.10
2023-02-08T19:02:08.027Z,6.10
2023-02-08T19:04:37.836Z,6.10
2023-02-08T19:07:06.026Z,6.10
2023-02-08T19:09:35.752Z,6.10
2023-02-08T19:12:03.840Z,6.10
2023-02-08T19:14:31.836Z,6.00
2023-02-08T19:17:02.195Z,5.90
2023-02-08T19:19:30.351Z,5.90
2023-02-08T19:21:58.433Z,6.00
2023-02-08T19:24:26.635Z,6.00
2023-02-08T19:26:54.838Z,6.00
2023-02-08T19:29:23.405Z,6.00
2023-02-08T19:31:51.568Z,6.00
2023-02-08T19:34:21.061Z,6.10
2023-02-08T19:36:51.618Z,6.00
2023-02-08T19:39:20.772Z,6.10
2023-02-08T19:41:49.205Z,6.00
2023-02-08T19:44:18.723Z,6.00
2023-02-08T19:46:48.615Z,5.90
2023-02-08T19:49:16.681Z,5.90
2023-02-08T19:51:46.075Z,5.90
2023-02-08T19:54:15.367Z,5.90
2023-02-08T19:56:43.437Z,5.90
2023-02-08T19:59:16.604Z,5.90
2023-02-08T20:01:44.763Z,5.90
2023-02-08T20:04:13.422Z,5.90
2023-02-08T20:06:41.532Z,6.00
2023-02-08T20:09:11.089Z,6.00
2023-02-08T20:11:51.297Z,6.00
2023-02-08T20:14:24.421Z,6.00
2023-02-08T20:16:52.569Z,6.00
2023-02-08T20:19:20.719Z,5.90
2023-02-08T20:21:48.795Z,5.90
2023-02-08T20:24:18.293Z,5.90
2023-02-08T20:26:46.888Z,5.90
2023-02-08T20:29:15.153Z,5.90
2023-02-08T20:31:46.667Z,5.90
2023-02-08T20:34:15.470Z,6.00
2023-02-08T20:36:49.518Z,6.00
2023-02-08T20:39:21.717Z,6.00
2023-02-08T20:41:49.734Z,6.00
2023-02-08T20:44:18.717Z,6.00
2023-02-08T20:46:46.828Z,6.00
2023-02-08T20:49:15.368Z,5.90
2023-02-08T20:51:43.593Z,5.90
2023-02-08T20:54:11.621Z,5.80
2023-02-08T20:56:41.124Z,5.80
2023-02-08T20:59:09.795Z,5.90
2023-02-08T21:01:38.617Z,5.90
2023-02-08T21:04:06.853Z,5.90
2023-02-08T21:06:36.154Z,5.90
2023-02-08T21:09:05.352Z,6.00
2023-02-08T21:11:33.490Z,5.90
2023-02-08T21:14:02.967Z,6.00
2023-02-08T21:16:31.422Z,6.00
2023-02-08T21:18:59.629Z,5.90
2023-02-08T21:21:27.874Z,5.80
2023-02-08T21:23:56.806Z,5.80
2023-02-08T21:26:25.128Z,5.80
2023-02-08T21:28:53.893Z,5.80
2023-02-08T21:31:23.828Z,5.90
2023-02-08T21:33:52.326Z,5.90
2023-02-08T21:36:21.095Z,5.90
2023-02-08T21:38:49.275Z,5.90
2023-02-08T21:41:20.187Z,5.90
2023-02-08T21:43:48.309Z,5.90
2023-02-08T21:46:16.615Z,5.90
2023-02-08T21:49:03.760Z,5.90
2023-02-08T21:51:49.420Z,5.80
2023-02-08T21:54:36.396Z,5.80
2023-02-08T21:57:05.927Z,5.80
2023-02-08T21:59:35.363Z,5.70
2023-02-08T22:02:05.700Z,5.70
2023-02-08T22:04:35.212Z,5.80
2023-02-08T22:07:04.565Z,5.80
2023-02-08T22:09:32.646Z,5.80
2023-02-08T22:12:00.703Z,5.80
2023-02-08T22:14:28.718Z,5.80
2023-02-08T22:16:56.719Z,5.80
2023-02-08T22:19:24.756Z,5.80
2023-02-08T22:21:54.152Z,5.90
2023-02-08T22:24:22.160Z,5.80
2023-02-08T22:26:50.206Z,5.80
2023-02-08T22:29:18.223Z,5.70
2023-02-08T22:31:46.337Z,5.70
2023-02-08T22:34:14.447Z,5.70
2023-02-08T22:36:42.454Z,5.70
2023-02-08T22:39:11.904Z,5.80
2023-02-08T22:41:39.926Z,5.80
2023-02-08T22:44:07.944Z,5.80
2023-02-08T22:46:36.106Z,5.80
2023-02-08T22:49:04.168Z,5.80
2023-02-08T22:51:32.280Z,5.80
2023-02-08T22:54:00.330Z,5.80
2023-02-08T22:56:29.743Z,5.70
2023-02-08T22:58:57.851Z,5.60
2023-02-08T23:01:27.093Z,5.60
2023-02-08T23:03:55.184Z,5.70
2023-02-08T23:06:23.224Z,5.70
2023-02-08T23:08:51.265Z,5.70
2023-02-08T23:11:19.299Z,5.70
2023-02-08T23:13:48.672Z,5.80
2023-02-08T23:16:17.683Z,5.80
2023-02-08T23:18:45.748Z,5.80
2023-02-08T23:21:15.395Z,5.80
2023-02-08T23:23:43.522Z,5.80
2023-02-08T23:26:14.004Z,5.70
2023-02-08T23:28:42.031Z,5.70
2023-02-08T23:31:12.608Z,5.60
2023-02-08T23:33:40.755Z,5.60
2023-02-08T23:36:10.305Z,5.70
2023-02-08T23:38:38.362Z,5.70
2023-02-08T23:41:06.647Z,5.70
2023-02-08T23:43:34.786Z,5.70
2023-02-08T23:46:06.858Z,5.70
2023-02-08T23:48:38.980Z,5.70
2023-02-08T23:51:07.459Z,5.70
2023-02-08T23:53:36.225Z,5.70
2023-02-08T23:56:06.475Z,5.70
2023-02-08T23:58:34.570Z,5.60
